sensor_id;sensor_type;location;lat;lon;timestamp;P1;durP1;ratioP1;P2;durP2;ratioP2
69434;SDS011;56625;54.322;18.582;2023-05-07T00:00:30;11.40;;;3.70;;
69434;SDS011;56625;54.322;18.582;2023-05-07T00:03:18;11.60;;;3.20;;
69434;SDS011;56625;54.322;18.582;2023-05-07T00:05:46;10.40;;;3.70;;
69434;SDS011;56625;54.322;18.582;2023-05-07T00:08:14;10.50;;;3.50;;
69434;SDS011;56625;54.322;18.582;2023-05-07T00:10:42;12.80;;;3.80;;
69434;SDS011;56625;54.322;18.582;2023-05-07T00:13:10;9.90;;;3.80;;
69434;SDS011;56625;54.322;18.582;2023-05-07T00:15:38;9.10;;;3.50;;
69434;SDS011;56625;54.322;18.582;2023-05-07T00:18:06;9.70;;;3.50;;
69434;SDS011;56625;54.322;18.582;2023-05-07T00:20:34;12.00;;;3.70;;
69434;SDS011;56625;54.322;18.582;2023-05-07T00:23:02;10.30;;;3.60;;
69434;SDS011;56625;54.322;18.582;2023-05-07T00:25:30;10.00;;;3.80;;
69434;SDS011;56625;54.322;18.582;2023-05-07T00:27:58;9.90;;;3.70;;
69434;SDS011;56625;54.322;18.582;2023-05-07T00:30:31;8.00;;;2.60;;
69434;SDS011;56625;54.322;18.582;2023-05-07T00:32:59;8.40;;;3.00;;
69434;SDS011;56625;54.322;18.582;2023-05-07T00:35:28;12.90;;;3.20;;
69434;SDS011;56625;54.322;18.582;2023-05-07T00:37:57;8.60;;;3.20;;
69434;SDS011;56625;54.322;18.582;2023-05-07T00:40:25;9.10;;;3.50;;
69434;SDS011;56625;54.322;18.582;2023-05-07T00:42:53;10.40;;;3.40;;
69434;SDS011;56625;54.322;18.582;2023-05-07T00:45:26;11.60;;;3.50;;
69434;SDS011;56625;54.322;18.582;2023-05-07T00:48:00;10.20;;;3.30;;
69434;SDS011;56625;54.322;18.582;2023-05-07T00:50:30;10.50;;;3.60;;
69434;SDS011;56625;54.322;18.582;2023-05-07T00:53:00;9.60;;;3.20;;
69434;SDS011;56625;54.322;18.582;2023-05-07T00:55:28;11.70;;;2.90;;
69434;SDS011;56625;54.322;18.582;2023-05-07T00:57:57;8.80;;;3.30;;
69434;SDS011;56625;54.322;18.582;2023-05-07T01:00:24;8.50;;;3.30;;
69434;SDS011;56625;54.322;18.582;2023-05-07T01:02:52;9.10;;;3.20;;
69434;SDS011;56625;54.322;18.582;2023-05-07T01:05:22;10.40;;;3.20;;
69434;SDS011;56625;54.322;18.582;2023-05-07T01:07:53;7.20;;;2.60;;
69434;SDS011;56625;54.322;18.582;2023-05-07T01:10:23;8.80;;;3.20;;
69434;SDS011;56625;54.322;18.582;2023-05-07T01:12:53;8.40;;;3.00;;
69434;SDS011;56625;54.322;18.582;2023-05-07T01:15:21;9.00;;;3.20;;
69434;SDS011;56625;54.322;18.582;2023-05-07T01:17:49;9.30;;;3.10;;
69434;SDS011;56625;54.322;18.582;2023-05-07T01:20:18;9.20;;;2.90;;
69434;SDS011;56625;54.322;18.582;2023-05-07T01:22:47;9.60;;;3.50;;
69434;SDS011;56625;54.322;18.582;2023-05-07T01:25:15;10.10;;;3.40;;
69434;SDS011;56625;54.322;18.582;2023-05-07T01:27:43;10.10;;;3.50;;
69434;SDS011;56625;54.322;18.582;2023-05-07T01:30:11;9.70;;;3.40;;
69434;SDS011;56625;54.322;18.582;2023-05-07T01:32:43;10.50;;;3.80;;
69434;SDS011;56625;54.322;18.582;2023-05-07T01:35:19;9.20;;;3.30;;
69434;SDS011;56625;54.322;18.582;2023-05-07T01:37:50;9.20;;;3.10;;
69434;SDS011;56625;54.322;18.582;2023-05-07T01:40:18;8.60;;;3.40;;
69434;SDS011;56625;54.322;18.582;2023-05-07T01:42:47;9.70;;;3.40;;
69434;SDS011;56625;54.322;18.582;2023-05-07T01:45:15;9.30;;;3.20;;
69434;SDS011;56625;54.322;18.582;2023-05-07T01:47:44;12.00;;;3.80;;
69434;SDS011;56625;54.322;18.582;2023-05-07T01:50:12;12.80;;;4.10;;
69434;SDS011;56625;54.322;18.582;2023-05-07T01:52:41;9.40;;;3.70;;
69434;SDS011;56625;54.322;18.582;2023-05-07T01:55:09;11.00;;;3.30;;
69434;SDS011;56625;54.322;18.582;2023-05-07T01:57:37;12.50;;;4.00;;
69434;SDS011;56625;54.322;18.582;2023-05-07T02:00:05;9.10;;;3.80;;
69434;SDS011;56625;54.322;18.582;2023-05-07T02:02:33;11.10;;;3.50;;
69434;SDS011;56625;54.322;18.582;2023-05-07T02:05:02;10.10;;;4.00;;
69434;SDS011;56625;54.322;18.582;2023-05-07T02:07:30;11.70;;;3.80;;
69434;SDS011;56625;54.322;18.582;2023-05-07T02:09:58;12.60;;;3.40;;
69434;SDS011;56625;54.322;18.582;2023-05-07T02:12:25;9.60;;;3.80;;
69434;SDS011;56625;54.322;18.582;2023-05-07T02:14:53;13.80;;;4.10;;
69434;SDS011;56625;54.322;18.582;2023-05-07T02:17:21;8.80;;;3.50;;
69434;SDS011;56625;54.322;18.582;2023-05-07T02:19:49;10.70;;;3.60;;
69434;SDS011;56625;54.322;18.582;2023-05-07T02:22:17;9.80;;;3.90;;
69434;SDS011;56625;54.322;18.582;2023-05-07T02:24:45;9.20;;;3.50;;
69434;SDS011;56625;54.322;18.582;2023-05-07T02:27:13;11.90;;;4.30;;
69434;SDS011;56625;54.322;18.582;2023-05-07T02:29:40;12.20;;;4.70;;
69434;SDS011;56625;54.322;18.582;2023-05-07T02:32:08;11.10;;;4.10;;
69434;SDS011;56625;54.322;18.582;2023-05-07T02:34:36;11.10;;;4.00;;
69434;SDS011;56625;54.322;18.582;2023-05-07T02:37:04;11.10;;;4.30;;
69434;SDS011;56625;54.322;18.582;2023-05-07T02:39:32;11.20;;;4.00;;
69434;SDS011;56625;54.322;18.582;2023-05-07T02:42:00;11.60;;;3.90;;
69434;SDS011;56625;54.322;18.582;2023-05-07T02:44:29;10.40;;;4.10;;
69434;SDS011;56625;54.322;18.582;2023-05-07T02:46:58;12.50;;;4.20;;
69434;SDS011;56625;54.322;18.582;2023-05-07T02:49:26;12.30;;;4.70;;
69434;SDS011;56625;54.322;18.582;2023-05-07T02:51:54;10.20;;;3.70;;
69434;SDS011;56625;54.322;18.582;2023-05-07T02:54:23;12.30;;;4.70;;
69434;SDS011;56625;54.322;18.582;2023-05-07T02:56:51;11.50;;;4.10;;
69434;SDS011;56625;54.322;18.582;2023-05-07T02:59:19;11.70;;;4.60;;
69434;SDS011;56625;54.322;18.582;2023-05-07T03:01:46;15.40;;;4.70;;
69434;SDS011;56625;54.322;18.582;2023-05-07T03:04:16;15.20;;;5.20;;
69434;SDS011;56625;54.322;18.582;2023-05-07T03:06:44;12.60;;;4.80;;
69434;SDS011;56625;54.322;18.582;2023-05-07T03:09:12;12.20;;;4.60;;
69434;SDS011;56625;54.322;18.582;2023-05-07T03:11:40;12.40;;;4.40;;
69434;SDS011;56625;54.322;18.582;2023-05-07T03:14:08;12.30;;;3.80;;
69434;SDS011;56625;54.322;18.582;2023-05-07T03:16:37;14.00;;;5.00;;
69434;SDS011;56625;54.322;18.582;2023-05-07T03:19:06;11.20;;;4.40;;
69434;SDS011;56625;54.322;18.582;2023-05-07T03:21:34;15.70;;;4.60;;
69434;SDS011;56625;54.322;18.582;2023-05-07T03:24:02;17.20;;;5.30;;
69434;SDS011;56625;54.322;18.582;2023-05-07T03:26:29;13.20;;;5.40;;
69434;SDS011;56625;54.322;18.582;2023-05-07T03:28:57;11.80;;;4.40;;
69434;SDS011;56625;54.322;18.582;2023-05-07T03:31:25;11.40;;;4.70;;
69434;SDS011;56625;54.322;18.582;2023-05-07T03:33:54;12.10;;;4.80;;
69434;SDS011;56625;54.322;18.582;2023-05-07T03:36:24;13.20;;;4.30;;
69434;SDS011;56625;54.322;18.582;2023-05-07T03:38:54;13.70;;;4.70;;
69434;SDS011;56625;54.322;18.582;2023-05-07T03:41:22;12.20;;;4.30;;
69434;SDS011;56625;54.322;18.582;2023-05-07T03:43:50;14.90;;;5.10;;
69434;SDS011;56625;54.322;18.582;2023-05-07T03:46:18;13.70;;;4.90;;
69434;SDS011;56625;54.322;18.582;2023-05-07T03:48:46;12.00;;;4.70;;
69434;SDS011;56625;54.322;18.582;2023-05-07T03:51:14;10.40;;;4.30;;
69434;SDS011;56625;54.322;18.582;2023-05-07T03:53:42;9.70;;;4.80;;
69434;SDS011;56625;54.322;18.582;2023-05-07T03:56:09;12.80;;;4.60;;
69434;SDS011;56625;54.322;18.582;2023-05-07T03:58:37;11.90;;;4.40;;
69434;SDS011;56625;54.322;18.582;2023-05-07T04:01:05;12.50;;;4.40;;
69434;SDS011;56625;54.322;18.582;2023-05-07T04:03:33;12.30;;;4.90;;
69434;SDS011;56625;54.322;18.582;2023-05-07T04:06:01;11.60;;;4.40;;
69434;SDS011;56625;54.322;18.582;2023-05-07T04:08:29;11.60;;;4.00;;
69434;SDS011;56625;54.322;18.582;2023-05-07T04:10:58;12.10;;;4.80;;
69434;SDS011;56625;54.322;18.582;2023-05-07T04:13:29;10.50;;;3.90;;
69434;SDS011;56625;54.322;18.582;2023-05-07T04:15:57;9.90;;;4.10;;
69434;SDS011;56625;54.322;18.582;2023-05-07T04:18:25;9.90;;;4.10;;
69434;SDS011;56625;54.322;18.582;2023-05-07T04:20:53;10.10;;;4.50;;
69434;SDS011;56625;54.322;18.582;2023-05-07T04:23:21;9.60;;;4.20;;
69434;SDS011;56625;54.322;18.582;2023-05-07T04:25:50;13.00;;;4.10;;
69434;SDS011;56625;54.322;18.582;2023-05-07T04:28:18;11.20;;;3.90;;
69434;SDS011;56625;54.322;18.582;2023-05-07T04:30:46;13.90;;;4.40;;
69434;SDS011;56625;54.322;18.582;2023-05-07T04:33:14;10.90;;;4.20;;
69434;SDS011;56625;54.322;18.582;2023-05-07T04:35:44;10.30;;;4.10;;
69434;SDS011;56625;54.322;18.582;2023-05-07T04:38:12;10.90;;;4.90;;
69434;SDS011;56625;54.322;18.582;2023-05-07T04:40:40;14.80;;;4.70;;
69434;SDS011;56625;54.322;18.582;2023-05-07T04:43:08;11.50;;;4.70;;
69434;SDS011;56625;54.322;18.582;2023-05-07T04:45:36;10.70;;;4.40;;
69434;SDS011;56625;54.322;18.582;2023-05-07T04:48:04;12.70;;;4.60;;
69434;SDS011;56625;54.322;18.582;2023-05-07T04:50:32;10.00;;;4.90;;
69434;SDS011;56625;54.322;18.582;2023-05-07T04:53:00;11.70;;;4.50;;
69434;SDS011;56625;54.322;18.582;2023-05-07T04:55:28;10.60;;;4.40;;
69434;SDS011;56625;54.322;18.582;2023-05-07T04:57:56;11.20;;;4.60;;
69434;SDS011;56625;54.322;18.582;2023-05-07T05:00:24;9.10;;;3.00;;
69434;SDS011;56625;54.322;18.582;2023-05-07T05:02:52;8.70;;;3.30;;
69434;SDS011;56625;54.322;18.582;2023-05-07T05:05:20;9.40;;;3.70;;
69434;SDS011;56625;54.322;18.582;2023-05-07T05:07:48;8.30;;;3.30;;
69434;SDS011;56625;54.322;18.582;2023-05-07T05:10:16;7.80;;;3.10;;
69434;SDS011;56625;54.322;18.582;2023-05-07T05:12:44;7.10;;;2.60;;
69434;SDS011;56625;54.322;18.582;2023-05-07T05:15:12;7.10;;;2.30;;
69434;SDS011;56625;54.322;18.582;2023-05-07T05:17:43;7.30;;;2.20;;
69434;SDS011;56625;54.322;18.582;2023-05-07T05:20:11;8.60;;;2.70;;
69434;SDS011;56625;54.322;18.582;2023-05-07T05:22:41;6.00;;;2.30;;
69434;SDS011;56625;54.322;18.582;2023-05-07T05:25:10;8.40;;;2.30;;
69434;SDS011;56625;54.322;18.582;2023-05-07T05:27:38;6.40;;;2.10;;
69434;SDS011;56625;54.322;18.582;2023-05-07T05:30:06;6.20;;;1.80;;
69434;SDS011;56625;54.322;18.582;2023-05-07T05:32:35;7.20;;;2.20;;
69434;SDS011;56625;54.322;18.582;2023-05-07T05:35:03;6.90;;;2.30;;
69434;SDS011;56625;54.322;18.582;2023-05-07T05:37:31;7.50;;;2.10;;
69434;SDS011;56625;54.322;18.582;2023-05-07T05:39:59;6.30;;;1.80;;
69434;SDS011;56625;54.322;18.582;2023-05-07T05:42:27;6.40;;;2.30;;
69434;SDS011;56625;54.322;18.582;2023-05-07T05:44:55;6.00;;;2.00;;
69434;SDS011;56625;54.322;18.582;2023-05-07T05:47:23;7.00;;;2.00;;
69434;SDS011;56625;54.322;18.582;2023-05-07T05:49:50;5.90;;;1.90;;
69434;SDS011;56625;54.322;18.582;2023-05-07T05:52:18;6.10;;;1.70;;
69434;SDS011;56625;54.322;18.582;2023-05-07T05:54:46;7.70;;;1.90;;
69434;SDS011;56625;54.322;18.582;2023-05-07T05:57:14;6.90;;;2.00;;
69434;SDS011;56625;54.322;18.582;2023-05-07T05:59:42;5.80;;;1.80;;
69434;SDS011;56625;54.322;18.582;2023-05-07T06:02:10;8.10;;;2.50;;
69434;SDS011;56625;54.322;18.582;2023-05-07T06:04:38;6.40;;;1.90;;
69434;SDS011;56625;54.322;18.582;2023-05-07T06:07:06;8.20;;;2.00;;
69434;SDS011;56625;54.322;18.582;2023-05-07T06:09:34;6.60;;;2.00;;
69434;SDS011;56625;54.322;18.582;2023-05-07T06:12:02;6.60;;;2.00;;
69434;SDS011;56625;54.322;18.582;2023-05-07T06:14:30;6.60;;;2.00;;
69434;SDS011;56625;54.322;18.582;2023-05-07T06:16:58;6.20;;;1.90;;
69434;SDS011;56625;54.322;18.582;2023-05-07T06:19:25;6.70;;;2.30;;
69434;SDS011;56625;54.322;18.582;2023-05-07T06:21:55;7.10;;;2.20;;
69434;SDS011;56625;54.322;18.582;2023-05-07T06:24:28;5.80;;;2.00;;
69434;SDS011;56625;54.322;18.582;2023-05-07T06:26:56;5.50;;;1.80;;
69434;SDS011;56625;54.322;18.582;2023-05-07T06:29:26;6.30;;;1.90;;
69434;SDS011;56625;54.322;18.582;2023-05-07T06:31:54;6.90;;;1.90;;
69434;SDS011;56625;54.322;18.582;2023-05-07T06:34:22;5.60;;;1.80;;
69434;SDS011;56625;54.322;18.582;2023-05-07T06:36:49;6.20;;;2.00;;
69434;SDS011;56625;54.322;18.582;2023-05-07T06:39:20;6.40;;;2.20;;
69434;SDS011;56625;54.322;18.582;2023-05-07T06:41:47;6.70;;;2.10;;
69434;SDS011;56625;54.322;18.582;2023-05-07T06:44:15;6.50;;;2.00;;
69434;SDS011;56625;54.322;18.582;2023-05-07T06:46:43;8.00;;;2.20;;
69434;SDS011;56625;54.322;18.582;2023-05-07T06:49:15;7.00;;;1.90;;
69434;SDS011;56625;54.322;18.582;2023-05-07T06:51:43;5.90;;;1.80;;
69434;SDS011;56625;54.322;18.582;2023-05-07T06:54:11;7.30;;;2.30;;
69434;SDS011;56625;54.322;18.582;2023-05-07T06:56:39;6.40;;;1.80;;
69434;SDS011;56625;54.322;18.582;2023-05-07T06:59:06;6.20;;;1.80;;
69434;SDS011;56625;54.322;18.582;2023-05-07T07:01:34;7.80;;;2.10;;
69434;SDS011;56625;54.322;18.582;2023-05-07T07:04:02;5.70;;;1.80;;
69434;SDS011;56625;54.322;18.582;2023-05-07T07:06:31;7.10;;;1.90;;
69434;SDS011;56625;54.322;18.582;2023-05-07T07:08:59;6.80;;;2.00;;
69434;SDS011;56625;54.322;18.582;2023-05-07T07:11:28;6.30;;;1.90;;
69434;SDS011;56625;54.322;18.582;2023-05-07T07:13:55;9.90;;;2.20;;
69434;SDS011;56625;54.322;18.582;2023-05-07T07:16:24;8.20;;;2.10;;
69434;SDS011;56625;54.322;18.582;2023-05-07T07:18:52;6.40;;;2.00;;
69434;SDS011;56625;54.322;18.582;2023-05-07T07:21:20;8.20;;;1.80;;
69434;SDS011;56625;54.322;18.582;2023-05-07T07:23:47;5.30;;;1.60;;
69434;SDS011;56625;54.322;18.582;2023-05-07T07:26:17;5.70;;;1.50;;
69434;SDS011;56625;54.322;18.582;2023-05-07T07:28:45;5.80;;;1.50;;
69434;SDS011;56625;54.322;18.582;2023-05-07T07:31:13;7.10;;;1.50;;
69434;SDS011;56625;54.322;18.582;2023-05-07T07:33:42;6.80;;;1.60;;
69434;SDS011;56625;54.322;18.582;2023-05-07T07:36:10;5.70;;;1.80;;
69434;SDS011;56625;54.322;18.582;2023-05-07T07:38:38;4.80;;;1.50;;
69434;SDS011;56625;54.322;18.582;2023-05-07T07:41:08;5.10;;;1.60;;
69434;SDS011;56625;54.322;18.582;2023-05-07T07:43:36;5.80;;;1.40;;
69434;SDS011;56625;54.322;18.582;2023-05-07T07:46:04;5.20;;;1.30;;
69434;SDS011;56625;54.322;18.582;2023-05-07T07:48:32;3.10;;;0.90;;
69434;SDS011;56625;54.322;18.582;2023-05-07T07:51:01;5.50;;;1.10;;
69434;SDS011;56625;54.322;18.582;2023-05-07T07:53:28;5.30;;;1.30;;
69434;SDS011;56625;54.322;18.582;2023-05-07T07:55:56;6.00;;;1.30;;
69434;SDS011;56625;54.322;18.582;2023-05-07T07:58:26;4.90;;;1.20;;
69434;SDS011;56625;54.322;18.582;2023-05-07T08:00:55;6.20;;;1.40;;
69434;SDS011;56625;54.322;18.582;2023-05-07T08:03:23;4.90;;;1.20;;
69434;SDS011;56625;54.322;18.582;2023-05-07T08:05:51;5.30;;;1.30;;
69434;SDS011;56625;54.322;18.582;2023-05-07T08:08:19;4.60;;;1.50;;
69434;SDS011;56625;54.322;18.582;2023-05-07T08:10:47;5.30;;;1.40;;
69434;SDS011;56625;54.322;18.582;2023-05-07T08:13:17;4.20;;;1.20;;
69434;SDS011;56625;54.322;18.582;2023-05-07T08:15:46;5.50;;;1.40;;
69434;SDS011;56625;54.322;18.582;2023-05-07T08:18:14;7.50;;;1.80;;
69434;SDS011;56625;54.322;18.582;2023-05-07T08:20:42;5.10;;;1.60;;
69434;SDS011;56625;54.322;18.582;2023-05-07T08:23:10;4.80;;;1.30;;
69434;SDS011;56625;54.322;18.582;2023-05-07T08:25:38;5.30;;;1.70;;
69434;SDS011;56625;54.322;18.582;2023-05-07T08:28:06;4.30;;;1.20;;
69434;SDS011;56625;54.322;18.582;2023-05-07T08:30:36;5.40;;;1.30;;
69434;SDS011;56625;54.322;18.582;2023-05-07T08:33:04;4.30;;;1.10;;
69434;SDS011;56625;54.322;18.582;2023-05-07T08:35:33;4.90;;;1.20;;
69434;SDS011;56625;54.322;18.582;2023-05-07T08:38:01;5.50;;;1.40;;
69434;SDS011;56625;54.322;18.582;2023-05-07T08:40:33;4.70;;;1.40;;
69434;SDS011;56625;54.322;18.582;2023-05-07T08:43:06;5.70;;;1.90;;
69434;SDS011;56625;54.322;18.582;2023-05-07T08:45:34;7.10;;;1.80;;
69434;SDS011;56625;54.322;18.582;2023-05-07T08:48:05;6.00;;;1.80;;
69434;SDS011;56625;54.322;18.582;2023-05-07T08:50:38;8.00;;;1.90;;
69434;SDS011;56625;54.322;18.582;2023-05-07T08:53:06;6.70;;;1.80;;
69434;SDS011;56625;54.322;18.582;2023-05-07T08:55:34;6.40;;;1.50;;
69434;SDS011;56625;54.322;18.582;2023-05-07T08:58:03;7.40;;;1.60;;
69434;SDS011;56625;54.322;18.582;2023-05-07T09:00:32;7.70;;;1.80;;
69434;SDS011;56625;54.322;18.582;2023-05-07T09:03:00;7.00;;;1.70;;
69434;SDS011;56625;54.322;18.582;2023-05-07T09:05:28;5.50;;;1.90;;
69434;SDS011;56625;54.322;18.582;2023-05-07T09:07:59;6.70;;;1.60;;
69434;SDS011;56625;54.322;18.582;2023-05-07T09:10:29;6.20;;;1.20;;
69434;SDS011;56625;54.322;18.582;2023-05-07T09:12:57;5.00;;;1.50;;
69434;SDS011;56625;54.322;18.582;2023-05-07T09:15:26;6.60;;;1.70;;
69434;SDS011;56625;54.322;18.582;2023-05-07T09:17:59;5.90;;;1.40;;
69434;SDS011;56625;54.322;18.582;2023-05-07T09:20:30;5.50;;;1.20;;
69434;SDS011;56625;54.322;18.582;2023-05-07T09:22:59;6.20;;;1.50;;
69434;SDS011;56625;54.322;18.582;2023-05-07T09:25:31;5.50;;;1.50;;
69434;SDS011;56625;54.322;18.582;2023-05-07T09:28:01;7.20;;;1.70;;
69434;SDS011;56625;54.322;18.582;2023-05-07T09:30:31;5.50;;;1.60;;
69434;SDS011;56625;54.322;18.582;2023-05-07T09:33:02;4.40;;;1.30;;
69434;SDS011;56625;54.322;18.582;2023-05-07T09:35:31;7.10;;;1.60;;
69434;SDS011;56625;54.322;18.582;2023-05-07T09:38:00;5.90;;;1.10;;
69434;SDS011;56625;54.322;18.582;2023-05-07T09:40:31;7.10;;;1.60;;
69434;SDS011;56625;54.322;18.582;2023-05-07T09:43:13;6.20;;;1.50;;
69434;SDS011;56625;54.322;18.582;2023-05-07T09:45:41;5.70;;;1.40;;
69434;SDS011;56625;54.322;18.582;2023-05-07T09:48:10;5.80;;;1.70;;
69434;SDS011;56625;54.322;18.582;2023-05-07T09:50:48;4.50;;;1.20;;
69434;SDS011;56625;54.322;18.582;2023-05-07T09:53:19;6.00;;;1.70;;
69434;SDS011;56625;54.322;18.582;2023-05-07T09:55:48;4.80;;;1.30;;
69434;SDS011;56625;54.322;18.582;2023-05-07T09:58:16;6.90;;;1.50;;
69434;SDS011;56625;54.322;18.582;2023-05-07T10:00:46;6.50;;;1.60;;
69434;SDS011;56625;54.322;18.582;2023-05-07T10:03:14;5.50;;;1.60;;
69434;SDS011;56625;54.322;18.582;2023-05-07T10:05:43;6.20;;;1.50;;
69434;SDS011;56625;54.322;18.582;2023-05-07T10:08:12;5.70;;;1.40;;
69434;SDS011;56625;54.322;18.582;2023-05-07T10:10:40;6.40;;;1.50;;
69434;SDS011;56625;54.322;18.582;2023-05-07T10:13:09;5.80;;;1.40;;
69434;SDS011;56625;54.322;18.582;2023-05-07T10:15:39;4.30;;;1.30;;
69434;SDS011;56625;54.322;18.582;2023-05-07T10:18:08;6.70;;;1.50;;
69434;SDS011;56625;54.322;18.582;2023-05-07T10:20:38;5.30;;;1.50;;
69434;SDS011;56625;54.322;18.582;2023-05-07T10:23:13;6.60;;;1.60;;
69434;SDS011;56625;54.322;18.582;2023-05-07T10:25:46;5.10;;;1.40;;
69434;SDS011;56625;54.322;18.582;2023-05-07T10:28:16;5.80;;;1.50;;
69434;SDS011;56625;54.322;18.582;2023-05-07T10:31:01;5.80;;;1.20;;
69434;SDS011;56625;54.322;18.582;2023-05-07T10:33:39;5.60;;;1.40;;
69434;SDS011;56625;54.322;18.582;2023-05-07T10:36:07;6.30;;;1.70;;
69434;SDS011;56625;54.322;18.582;2023-05-07T10:38:35;5.90;;;1.60;;
69434;SDS011;56625;54.322;18.582;2023-05-07T10:41:03;5.40;;;1.30;;
69434;SDS011;56625;54.322;18.582;2023-05-07T10:43:40;6.50;;;1.50;;
69434;SDS011;56625;54.322;18.582;2023-05-07T10:46:20;5.80;;;1.30;;
69434;SDS011;56625;54.322;18.582;2023-05-07T10:49:10;6.90;;;1.70;;
69434;SDS011;56625;54.322;18.582;2023-05-07T10:51:39;7.10;;;2.00;;
69434;SDS011;56625;54.322;18.582;2023-05-07T10:56:39;5.40;;;1.40;;
69434;SDS011;56625;54.322;18.582;2023-05-07T11:01:55;4.80;;;1.10;;
69434;SDS011;56625;54.322;18.582;2023-05-07T11:04:30;5.30;;;1.00;;
69434;SDS011;56625;54.322;18.582;2023-05-07T11:15:07;5.80;;;1.30;;
69434;SDS011;56625;54.322;18.582;2023-05-07T11:17:53;6.30;;;1.30;;
69434;SDS011;56625;54.322;18.582;2023-05-07T11:26:05;5.10;;;1.00;;
69434;SDS011;56625;54.322;18.582;2023-05-07T11:28:39;4.90;;;1.30;;
69434;SDS011;56625;54.322;18.582;2023-05-07T11:31:11;4.70;;;1.30;;
69434;SDS011;56625;54.322;18.582;2023-05-07T11:33:39;6.80;;;1.50;;
69434;SDS011;56625;54.322;18.582;2023-05-07T11:36:08;5.30;;;1.40;;
69434;SDS011;56625;54.322;18.582;2023-05-07T11:38:37;5.60;;;1.40;;
69434;SDS011;56625;54.322;18.582;2023-05-07T11:41:07;5.00;;;1.60;;
69434;SDS011;56625;54.322;18.582;2023-05-07T11:43:35;6.90;;;1.40;;
69434;SDS011;56625;54.322;18.582;2023-05-07T11:46:11;3.50;;;0.90;;
69434;SDS011;56625;54.322;18.582;2023-05-07T11:48:43;4.60;;;1.30;;
69434;SDS011;56625;54.322;18.582;2023-05-07T11:51:11;3.60;;;1.00;;
69434;SDS011;56625;54.322;18.582;2023-05-07T11:53:42;4.90;;;1.40;;
69434;SDS011;56625;54.322;18.582;2023-05-07T11:56:12;5.70;;;1.50;;
69434;SDS011;56625;54.322;18.582;2023-05-07T11:58:43;5.30;;;1.40;;
69434;SDS011;56625;54.322;18.582;2023-05-07T12:01:13;8.70;;;1.70;;
69434;SDS011;56625;54.322;18.582;2023-05-07T12:03:44;6.30;;;1.30;;
69434;SDS011;56625;54.322;18.582;2023-05-07T12:06:15;5.00;;;1.40;;
69434;SDS011;56625;54.322;18.582;2023-05-07T12:08:45;6.60;;;1.60;;
69434;SDS011;56625;54.322;18.582;2023-05-07T12:11:21;5.80;;;1.40;;
69434;SDS011;56625;54.322;18.582;2023-05-07T12:13:51;6.20;;;1.30;;
69434;SDS011;56625;54.322;18.582;2023-05-07T12:16:27;5.20;;;1.50;;
69434;SDS011;56625;54.322;18.582;2023-05-07T12:18:55;5.40;;;1.40;;
69434;SDS011;56625;54.322;18.582;2023-05-07T12:21:26;7.90;;;1.60;;
69434;SDS011;56625;54.322;18.582;2023-05-07T12:23:57;5.40;;;1.30;;
69434;SDS011;56625;54.322;18.582;2023-05-07T12:26:26;5.10;;;1.40;;
69434;SDS011;56625;54.322;18.582;2023-05-07T12:28:54;6.40;;;1.60;;
69434;SDS011;56625;54.322;18.582;2023-05-07T12:31:26;5.60;;;1.30;;
69434;SDS011;56625;54.322;18.582;2023-05-07T12:33:56;7.00;;;1.20;;
69434;SDS011;56625;54.322;18.582;2023-05-07T12:36:37;5.30;;;1.10;;
69434;SDS011;56625;54.322;18.582;2023-05-07T12:39:08;5.70;;;1.30;;
69434;SDS011;56625;54.322;18.582;2023-05-07T12:41:57;6.10;;;1.30;;
69434;SDS011;56625;54.322;18.582;2023-05-07T12:44:32;7.20;;;1.60;;
69434;SDS011;56625;54.322;18.582;2023-05-07T12:47:08;5.80;;;1.30;;
69434;SDS011;56625;54.322;18.582;2023-05-07T12:49:40;5.80;;;1.40;;
69434;SDS011;56625;54.322;18.582;2023-05-07T12:52:11;9.00;;;1.40;;
69434;SDS011;56625;54.322;18.582;2023-05-07T12:54:39;5.90;;;1.60;;
69434;SDS011;56625;54.322;18.582;2023-05-07T12:57:08;5.30;;;1.60;;
69434;SDS011;56625;54.322;18.582;2023-05-07T12:59:39;7.20;;;1.90;;
69434;SDS011;56625;54.322;18.582;2023-05-07T13:02:08;7.10;;;1.60;;
69434;SDS011;56625;54.322;18.582;2023-05-07T13:04:37;7.50;;;1.80;;
69434;SDS011;56625;54.322;18.582;2023-05-07T13:07:05;7.40;;;1.80;;
69434;SDS011;56625;54.322;18.582;2023-05-07T13:09:33;5.80;;;1.90;;
69434;SDS011;56625;54.322;18.582;2023-05-07T13:12:01;7.00;;;2.00;;
69434;SDS011;56625;54.322;18.582;2023-05-07T13:14:31;5.90;;;1.40;;
69434;SDS011;56625;54.322;18.582;2023-05-07T13:16:59;8.10;;;1.50;;
69434;SDS011;56625;54.322;18.582;2023-05-07T13:19:27;9.00;;;1.80;;
69434;SDS011;56625;54.322;18.582;2023-05-07T13:21:57;9.40;;;1.90;;
69434;SDS011;56625;54.322;18.582;2023-05-07T13:24:26;6.50;;;1.70;;
69434;SDS011;56625;54.322;18.582;2023-05-07T13:26:58;6.30;;;1.80;;
69434;SDS011;56625;54.322;18.582;2023-05-07T13:29:29;7.30;;;2.10;;
69434;SDS011;56625;54.322;18.582;2023-05-07T13:31:58;9.50;;;2.20;;
69434;SDS011;56625;54.322;18.582;2023-05-07T13:34:27;7.30;;;1.90;;
69434;SDS011;56625;54.322;18.582;2023-05-07T13:36:55;7.20;;;1.90;;
69434;SDS011;56625;54.322;18.582;2023-05-07T13:39:24;8.10;;;1.90;;
69434;SDS011;56625;54.322;18.582;2023-05-07T13:41:52;7.90;;;2.30;;
69434;SDS011;56625;54.322;18.582;2023-05-07T13:44:20;7.50;;;1.80;;
69434;SDS011;56625;54.322;18.582;2023-05-07T13:46:48;7.30;;;1.50;;
69434;SDS011;56625;54.322;18.582;2023-05-07T13:49:16;6.20;;;1.60;;
69434;SDS011;56625;54.322;18.582;2023-05-07T13:51:44;5.90;;;1.60;;
69434;SDS011;56625;54.322;18.582;2023-05-07T13:54:11;7.20;;;1.80;;
69434;SDS011;56625;54.322;18.582;2023-05-07T13:56:39;5.80;;;1.90;;
69434;SDS011;56625;54.322;18.582;2023-05-07T13:59:07;7.50;;;2.20;;
69434;SDS011;56625;54.322;18.582;2023-05-07T14:01:36;6.60;;;1.70;;
69434;SDS011;56625;54.322;18.582;2023-05-07T14:04:04;6.10;;;1.60;;
69434;SDS011;56625;54.322;18.582;2023-05-07T14:06:32;11.20;;;2.20;;
69434;SDS011;56625;54.322;18.582;2023-05-07T14:08:59;10.90;;;2.00;;
69434;SDS011;56625;54.322;18.582;2023-05-07T14:11:27;9.50;;;2.00;;
69434;SDS011;56625;54.322;18.582;2023-05-07T14:13:55;10.60;;;1.90;;
69434;SDS011;56625;54.322;18.582;2023-05-07T14:16:24;8.10;;;1.70;;
69434;SDS011;56625;54.322;18.582;2023-05-07T14:18:52;7.60;;;2.10;;
69434;SDS011;56625;54.322;18.582;2023-05-07T14:21:24;8.30;;;2.00;;
69434;SDS011;56625;54.322;18.582;2023-05-07T14:23:52;9.00;;;2.00;;
69434;SDS011;56625;54.322;18.582;2023-05-07T14:26:20;8.90;;;2.00;;
69434;SDS011;56625;54.322;18.582;2023-05-07T14:28:48;11.30;;;2.40;;
69434;SDS011;56625;54.322;18.582;2023-05-07T14:31:16;10.60;;;2.30;;
69434;SDS011;56625;54.322;18.582;2023-05-07T14:33:44;9.00;;;2.10;;
69434;SDS011;56625;54.322;18.582;2023-05-07T14:36:12;6.50;;;2.00;;
69434;SDS011;56625;54.322;18.582;2023-05-07T14:38:40;9.10;;;2.50;;
69434;SDS011;56625;54.322;18.582;2023-05-07T14:41:08;9.80;;;2.70;;
69434;SDS011;56625;54.322;18.582;2023-05-07T14:43:36;7.90;;;2.50;;
69434;SDS011;56625;54.322;18.582;2023-05-07T14:46:04;7.80;;;2.00;;
69434;SDS011;56625;54.322;18.582;2023-05-07T14:48:31;10.50;;;2.40;;
69434;SDS011;56625;54.322;18.582;2023-05-07T14:50:59;8.80;;;2.70;;
69434;SDS011;56625;54.322;18.582;2023-05-07T14:53:27;9.50;;;2.20;;
69434;SDS011;56625;54.322;18.582;2023-05-07T14:55:55;10.90;;;2.80;;
69434;SDS011;56625;54.322;18.582;2023-05-07T14:58:23;9.90;;;2.50;;
69434;SDS011;56625;54.322;18.582;2023-05-07T15:00:51;10.70;;;2.80;;